sensor_id;sensor_type;location;lat;lon;timestamp;temperature;humidity
17815;DHT22;9031;50.974;11.330;2023-12-14T00:00:24;7.50;99.90
17815;DHT22;9031;50.974;11.330;2023-12-14T00:02:50;7.50;99.90
17815;DHT22;9031;50.974;11.330;2023-12-14T00:05:15;7.50;99.90
17815;DHT22;9031;50.974;11.330;2023-12-14T00:07:41;7.40;99.90
17815;DHT22;9031;50.974;11.330;2023-12-14T00:10:07;7.50;99.90
17815;DHT22;9031;50.974;11.330;2023-12-14T00:12:33;7.50;99.90
17815;DHT22;9031;50.974;11.330;2023-12-14T00:14:58;7.70;99.90
17815;DHT22;9031;50.974;11.330;2023-12-14T00:17:24;7.60;99.90
17815;DHT22;9031;50.974;11.330;2023-12-14T00:19:49;7.50;99.90
17815;DHT22;9031;50.974;11.330;2023-12-14T00:22:15;7.40;99.90
17815;DHT22;9031;50.974;11.330;2023-12-14T00:24:40;7.50;99.90
17815;DHT22;9031;50.974;11.330;2023-12-14T00:27:06;7.50;99.90
17815;DHT22;9031;50.974;11.330;2023-12-14T00:29:31;7.60;99.90
17815;DHT22;9031;50.974;11.330;2023-12-14T00:31:57;7.60;99.90
17815;DHT22;9031;50.974;11.330;2023-12-14T00:34:22;7.60;99.90
17815;DHT22;9031;50.974;11.330;2023-12-14T00:36:48;7.50;99.90
17815;DHT22;9031;50.974;11.330;2023-12-14T00:39:13;7.50;99.90
17815;DHT22;9031;50.974;11.330;2023-12-14T00:41:39;7.50;99.90
17815;DHT22;9031;50.974;11.330;2023-12-14T00:44:05;7.50;99.90
17815;DHT22;9031;50.974;11.330;2023-12-14T00:46:30;7.60;99.90
17815;DHT22;9031;50.974;11.330;2023-12-14T00:48:56;7.60;99.90
17815;DHT22;9031;50.974;11.330;2023-12-14T00:51:21;7.50;99.90
17815;DHT22;9031;50.974;11.330;2023-12-14T00:53:47;7.60;99.90
17815;DHT22;9031;50.974;11.330;2023-12-14T00:56:12;7.60;99.90
17815;DHT22;9031;50.974;11.330;2023-12-14T00:58:38;7.60;99.90
17815;DHT22;9031;50.974;11.330;2023-12-14T01:01:03;7.70;99.90
17815;DHT22;9031;50.974;11.330;2023-12-14T01:03:29;7.60;99.90
17815;DHT22;9031;50.974;11.330;2023-12-14T01:05:54;7.60;99.90
17815;DHT22;9031;50.974;11.330;2023-12-14T01:08:20;7.50;99.90
17815;DHT22;9031;50.974;11.330;2023-12-14T01:10:46;7.50;99.90
17815;DHT22;9031;50.974;11.330;2023-12-14T01:13:11;7.50;99.90
17815;DHT22;9031;50.974;11.330;2023-12-14T01:15:37;7.50;99.90
17815;DHT22;9031;50.974;11.330;2023-12-14T01:18:02;7.40;99.90
17815;DHT22;9031;50.974;11.330;2023-12-14T01:20:28;7.40;99.90
17815;DHT22;9031;50.974;11.330;2023-12-14T01:22:54;7.30;99.90
17815;DHT22;9031;50.974;11.330;2023-12-14T01:25:20;7.40;99.90
17815;DHT22;9031;50.974;11.330;2023-12-14T01:27:45;7.40;99.90
17815;DHT22;9031;50.974;11.330;2023-12-14T01:30:11;7.40;99.90
17815;DHT22;9031;50.974;11.330;2023-12-14T01:32:36;7.40;99.90
17815;DHT22;9031;50.974;11.330;2023-12-14T01:35:02;7.40;99.90
17815;DHT22;9031;50.974;11.330;2023-12-14T01:37:28;7.40;99.90
17815;DHT22;9031;50.974;11.330;2023-12-14T01:39:53;7.30;99.90
17815;DHT22;9031;50.974;11.330;2023-12-14T01:42:19;7.30;99.90
17815;DHT22;9031;50.974;11.330;2023-12-14T01:44:44;7.30;99.90
17815;DHT22;9031;50.974;11.330;2023-12-14T01:47:10;7.30;99.90
17815;DHT22;9031;50.974;11.330;2023-12-14T01:49:35;7.40;99.90
17815;DHT22;9031;50.974;11.330;2023-12-14T01:52:01;7.40;99.90
17815;DHT22;9031;50.974;11.330;2023-12-14T01:54:27;7.40;99.90
17815;DHT22;9031;50.974;11.330;2023-12-14T01:56:52;7.50;99.90
17815;DHT22;9031;50.974;11.330;2023-12-14T01:59:19;7.40;99.90
17815;DHT22;9031;50.974;11.330;2023-12-14T02:01:46;7.40;99.90
17815;DHT22;9031;50.974;11.330;2023-12-14T02:04:12;7.50;99.90
17815;DHT22;9031;50.974;11.330;2023-12-14T02:06:39;7.50;99.90
17815;DHT22;9031;50.974;11.330;2023-12-14T02:09:04;7.60;99.90
17815;DHT22;9031;50.974;11.330;2023-12-14T02:11:30;7.60;99.90
17815;DHT22;9031;50.974;11.330;2023-12-14T02:13:56;7.60;99.90
17815;DHT22;9031;50.974;11.330;2023-12-14T02:16:21;7.60;99.90
17815;DHT22;9031;50.974;11.330;2023-12-14T02:18:47;7.60;99.90
17815;DHT22;9031;50.974;11.330;2023-12-14T02:21:13;7.60;99.90
17815;DHT22;9031;50.974;11.330;2023-12-14T02:23:45;7.50;99.90
17815;DHT22;9031;50.974;11.330;2023-12-14T02:26:13;7.40;99.90
17815;DHT22;9031;50.974;11.330;2023-12-14T02:28:39;7.40;99.90
17815;DHT22;9031;50.974;11.330;2023-12-14T02:31:05;7.30;99.90
17815;DHT22;9031;50.974;11.330;2023-12-14T02:33:30;7.40;99.90
17815;DHT22;9031;50.974;11.330;2023-12-14T02:35:56;7.30;99.90
17815;DHT22;9031;50.974;11.330;2023-12-14T02:38:21;7.30;99.90
17815;DHT22;9031;50.974;11.330;2023-12-14T02:40:47;7.40;99.90
17815;DHT22;9031;50.974;11.330;2023-12-14T02:43:13;7.40;99.90
17815;DHT22;9031;50.974;11.330;2023-12-14T02:45:38;7.40;99.90
17815;DHT22;9031;50.974;11.330;2023-12-14T02:48:04;7.50;99.90
17815;DHT22;9031;50.974;11.330;2023-12-14T02:50:30;7.50;99.90
17815;DHT22;9031;50.974;11.330;2023-12-14T02:52:55;7.60;99.90
17815;DHT22;9031;50.974;11.330;2023-12-14T02:55:21;7.50;99.90
17815;DHT22;9031;50.974;11.330;2023-12-14T02:57:46;7.50;99.90
17815;DHT22;9031;50.974;11.330;2023-12-14T03:00:12;7.60;99.90
17815;DHT22;9031;50.974;11.330;2023-12-14T03:02:38;7.50;99.90
17815;DHT22;9031;50.974;11.330;2023-12-14T03:05:04;7.50;99.90
17815;DHT22;9031;50.974;11.330;2023-12-14T03:07:30;7.50;99.90
17815;DHT22;9031;50.974;11.330;2023-12-14T03:09:55;7.50;99.90
17815;DHT22;9031;50.974;11.330;2023-12-14T03:12:21;7.60;99.90
17815;DHT22;9031;50.974;11.330;2023-12-14T03:14:46;7.50;99.90
17815;DHT22;9031;50.974;11.330;2023-12-14T03:17:12;7.50;99.90
17815;DHT22;9031;50.974;11.330;2023-12-14T03:19:42;7.50;99.90
17815;DHT22;9031;50.974;11.330;2023-12-14T03:22:08;7.50;99.90
17815;DHT22;9031;50.974;11.330;2023-12-14T03:24:35;7.50;99.90
17815;DHT22;9031;50.974;11.330;2023-12-14T03:27:01;7.50;99.90
17815;DHT22;9031;50.974;11.330;2023-12-14T03:29:28;7.50;99.90
17815;DHT22;9031;50.974;11.330;2023-12-14T03:31:57;7.50;99.90
17815;DHT22;9031;50.974;11.330;2023-12-14T03:34:23;7.50;99.90
17815;DHT22;9031;50.974;11.330;2023-12-14T03:36:49;7.50;99.90
17815;DHT22;9031;50.974;11.330;2023-12-14T03:39:15;7.50;99.90
17815;DHT22;9031;50.974;11.330;2023-12-14T03:41:42;7.50;99.90
17815;DHT22;9031;50.974;11.330;2023-12-14T03:44:08;7.50;99.90
17815;DHT22;9031;50.974;11.330;2023-12-14T03:46:33;7.50;99.90
17815;DHT22;9031;50.974;11.330;2023-12-14T03:49:00;7.50;99.90
17815;DHT22;9031;50.974;11.330;2023-12-14T03:51:25;7.50;99.90
17815;DHT22;9031;50.974;11.330;2023-12-14T03:53:51;7.60;99.90
17815;DHT22;9031;50.974;11.330;2023-12-14T03:56:16;7.70;99.90
17815;DHT22;9031;50.974;11.330;2023-12-14T03:58:42;7.70;99.90
17815;DHT22;9031;50.974;11.330;2023-12-14T04:01:07;7.70;99.90
17815;DHT22;9031;50.974;11.330;2023-12-14T04:03:33;7.70;99.90
17815;DHT22;9031;50.974;11.330;2023-12-14T04:05:59;7.70;99.90
17815;DHT22;9031;50.974;11.330;2023-12-14T04:08:24;7.70;99.90
17815;DHT22;9031;50.974;11.330;2023-12-14T04:10:50;7.70;99.90
17815;DHT22;9031;50.974;11.330;2023-12-14T04:13:15;7.70;99.90
17815;DHT22;9031;50.974;11.330;2023-12-14T04:15:41;7.80;99.90
17815;DHT22;9031;50.974;11.330;2023-12-14T04:18:07;7.80;99.90
17815;DHT22;9031;50.974;11.330;2023-12-14T04:20:33;7.70;99.90
17815;DHT22;9031;50.974;11.330;2023-12-14T04:22:59;7.70;99.90
17815;DHT22;9031;50.974;11.330;2023-12-14T04:25:24;7.60;99.90
17815;DHT22;9031;50.974;11.330;2023-12-14T04:27:50;7.50;99.90
17815;DHT22;9031;50.974;11.330;2023-12-14T04:30:16;7.20;99.90
17815;DHT22;9031;50.974;11.330;2023-12-14T04:32:41;7.10;99.90
17815;DHT22;9031;50.974;11.330;2023-12-14T04:35:07;7.10;99.90
17815;DHT22;9031;50.974;11.330;2023-12-14T04:37:33;7.00;99.90
17815;DHT22;9031;50.974;11.330;2023-12-14T04:39:59;7.00;99.90
17815;DHT22;9031;50.974;11.330;2023-12-14T04:42:25;6.90;99.90
17815;DHT22;9031;50.974;11.330;2023-12-14T04:44:50;6.90;99.90
17815;DHT22;9031;50.974;11.330;2023-12-14T04:47:16;6.90;99.90
17815;DHT22;9031;50.974;11.330;2023-12-14T04:49:41;6.90;99.90
17815;DHT22;9031;50.974;11.330;2023-12-14T04:52:07;6.80;99.90
17815;DHT22;9031;50.974;11.330;2023-12-14T04:54:33;6.90;99.90
17815;DHT22;9031;50.974;11.330;2023-12-14T04:57:00;6.90;99.90
17815;DHT22;9031;50.974;11.330;2023-12-14T04:59:26;6.90;99.90
17815;DHT22;9031;50.974;11.330;2023-12-14T05:01:51;6.90;99.90
17815;DHT22;9031;50.974;11.330;2023-12-14T05:04:17;6.90;99.90
17815;DHT22;9031;50.974;11.330;2023-12-14T05:06:42;6.80;99.90
17815;DHT22;9031;50.974;11.330;2023-12-14T05:09:08;6.70;99.90
17815;DHT22;9031;50.974;11.330;2023-12-14T05:11:33;6.70;99.90
17815;DHT22;9031;50.974;11.330;2023-12-14T05:13:59;6.80;99.90
17815;DHT22;9031;50.974;11.330;2023-12-14T05:16:25;6.80;99.90
17815;DHT22;9031;50.974;11.330;2023-12-14T05:18:53;6.70;99.90
17815;DHT22;9031;50.974;11.330;2023-12-14T05:21:19;6.80;99.90
17815;DHT22;9031;50.974;11.330;2023-12-14T05:23:45;6.70;99.90
17815;DHT22;9031;50.974;11.330;2023-12-14T05:26:10;6.70;99.90
17815;DHT22;9031;50.974;11.330;2023-12-14T05:28:36;6.60;99.90
17815;DHT22;9031;50.974;11.330;2023-12-14T05:31:01;6.80;99.90
17815;DHT22;9031;50.974;11.330;2023-12-14T05:33:28;6.70;99.90
17815;DHT22;9031;50.974;11.330;2023-12-14T05:35:53;6.90;99.90
17815;DHT22;9031;50.974;11.330;2023-12-14T05:38:19;6.80;99.90
17815;DHT22;9031;50.974;11.330;2023-12-14T05:40:45;6.90;99.90
17815;DHT22;9031;50.974;11.330;2023-12-14T05:43:10;6.80;99.90
17815;DHT22;9031;50.974;11.330;2023-12-14T05:45:36;6.80;99.90
17815;DHT22;9031;50.974;11.330;2023-12-14T05:48:02;6.70;99.90
17815;DHT22;9031;50.974;11.330;2023-12-14T05:50:30;6.60;99.90
17815;DHT22;9031;50.974;11.330;2023-12-14T05:52:56;6.50;99.90
17815;DHT22;9031;50.974;11.330;2023-12-14T05:55:22;6.50;99.90
17815;DHT22;9031;50.974;11.330;2023-12-14T05:57:48;6.60;99.90
17815;DHT22;9031;50.974;11.330;2023-12-14T06:00:14;6.60;99.90
17815;DHT22;9031;50.974;11.330;2023-12-14T06:02:39;6.70;99.90
17815;DHT22;9031;50.974;11.330;2023-12-14T06:05:06;6.70;99.90
17815;DHT22;9031;50.974;11.330;2023-12-14T06:07:32;6.60;99.90
17815;DHT22;9031;50.974;11.330;2023-12-14T06:09:58;6.40;99.90
17815;DHT22;9031;50.974;11.330;2023-12-14T06:12:23;6.40;99.90
17815;DHT22;9031;50.974;11.330;2023-12-14T06:14:49;6.50;99.90
17815;DHT22;9031;50.974;11.330;2023-12-14T06:17:15;6.40;99.90
17815;DHT22;9031;50.974;11.330;2023-12-14T06:19:41;6.40;99.90
17815;DHT22;9031;50.974;11.330;2023-12-14T06:22:07;6.20;99.90
17815;DHT22;9031;50.974;11.330;2023-12-14T06:24:32;6.20;99.90
17815;DHT22;9031;50.974;11.330;2023-12-14T06:26:58;6.20;99.90
17815;DHT22;9031;50.974;11.330;2023-12-14T06:29:24;6.10;99.90
17815;DHT22;9031;50.974;11.330;2023-12-14T06:31:49;6.10;99.90
17815;DHT22;9031;50.974;11.330;2023-12-14T06:34:15;6.20;99.90
17815;DHT22;9031;50.974;11.330;2023-12-14T06:36:46;6.20;99.90
17815;DHT22;9031;50.974;11.330;2023-12-14T06:39:12;6.20;99.90
17815;DHT22;9031;50.974;11.330;2023-12-14T06:41:38;6.30;99.90
17815;DHT22;9031;50.974;11.330;2023-12-14T06:44:04;6.40;99.90
17815;DHT22;9031;50.974;11.330;2023-12-14T06:46:29;6.40;99.90
17815;DHT22;9031;50.974;11.330;2023-12-14T06:48:55;6.50;99.90
17815;DHT22;9031;50.974;11.330;2023-12-14T06:51:21;6.60;99.90
17815;DHT22;9031;50.974;11.330;2023-12-14T06:53:47;6.50;99.90
17815;DHT22;9031;50.974;11.330;2023-12-14T06:56:13;6.50;99.90
17815;DHT22;9031;50.974;11.330;2023-12-14T06:58:40;6.40;99.90
17815;DHT22;9031;50.974;11.330;2023-12-14T07:01:07;6.30;99.90
17815;DHT22;9031;50.974;11.330;2023-12-14T07:03:33;6.20;99.90
17815;DHT22;9031;50.974;11.330;2023-12-14T07:05:58;6.10;99.90
17815;DHT22;9031;50.974;11.330;2023-12-14T07:08:24;6.10;99.90
17815;DHT22;9031;50.974;11.330;2023-12-14T07:10:50;6.20;99.90
17815;DHT22;9031;50.974;11.330;2023-12-14T07:13:16;6.20;99.90
17815;DHT22;9031;50.974;11.330;2023-12-14T07:15:41;6.20;99.90
17815;DHT22;9031;50.974;11.330;2023-12-14T07:18:07;6.10;99.90
17815;DHT22;9031;50.974;11.330;2023-12-14T07:20:32;5.90;99.90
17815;DHT22;9031;50.974;11.330;2023-12-14T07:22:58;5.90;99.90
17815;DHT22;9031;50.974;11.330;2023-12-14T07:25:24;5.70;99.90
17815;DHT22;9031;50.974;11.330;2023-12-14T07:27:49;5.70;99.90
17815;DHT22;9031;50.974;11.330;2023-12-14T07:30:16;5.70;99.90
17815;DHT22;9031;50.974;11.330;2023-12-14T07:32:41;5.70;99.90
17815;DHT22;9031;50.974;11.330;2023-12-14T07:35:07;5.70;99.90
17815;DHT22;9031;50.974;11.330;2023-12-14T07:37:33;5.60;99.90
17815;DHT22;9031;50.974;11.330;2023-12-14T07:39:59;5.60;99.90
17815;DHT22;9031;50.974;11.330;2023-12-14T07:42:24;5.60;99.90
17815;DHT22;9031;50.974;11.330;2023-12-14T07:44:50;5.70;99.90
17815;DHT22;9031;50.974;11.330;2023-12-14T07:47:15;6.00;99.90
17815;DHT22;9031;50.974;11.330;2023-12-14T07:49:41;6.00;99.90
17815;DHT22;9031;50.974;11.330;2023-12-14T07:52:07;6.10;99.90
17815;DHT22;9031;50.974;11.330;2023-12-14T07:54:32;6.10;99.90
17815;DHT22;9031;50.974;11.330;2023-12-14T07:56:58;6.10;99.90
17815;DHT22;9031;50.974;11.330;2023-12-14T07:59:23;6.20;99.90
17815;DHT22;9031;50.974;11.330;2023-12-14T08:01:49;6.30;99.90
17815;DHT22;9031;50.974;11.330;2023-12-14T08:04:15;6.10;99.90
17815;DHT22;9031;50.974;11.330;2023-12-14T08:06:40;6.20;99.90
17815;DHT22;9031;50.974;11.330;2023-12-14T08:09:06;5.90;99.90
17815;DHT22;9031;50.974;11.330;2023-12-14T08:11:32;5.80;99.90
17815;DHT22;9031;50.974;11.330;2023-12-14T08:13:58;6.00;99.90
17815;DHT22;9031;50.974;11.330;2023-12-14T08:16:24;6.00;99.90
17815;DHT22;9031;50.974;11.330;2023-12-14T08:18:49;6.10;99.90
17815;DHT22;9031;50.974;11.330;2023-12-14T08:21:16;6.20;99.90
17815;DHT22;9031;50.974;11.330;2023-12-14T08:23:42;6.10;99.90
17815;DHT22;9031;50.974;11.330;2023-12-14T08:26:08;5.90;99.90
17815;DHT22;9031;50.974;11.330;2023-12-14T08:28:35;5.90;99.90
17815;DHT22;9031;50.974;11.330;2023-12-14T08:31:01;5.90;99.90
17815;DHT22;9031;50.974;11.330;2023-12-14T08:33:28;5.80;99.90
17815;DHT22;9031;50.974;11.330;2023-12-14T08:35:54;5.70;99.90
17815;DHT22;9031;50.974;11.330;2023-12-14T08:38:20;5.70;99.90
17815;DHT22;9031;50.974;11.330;2023-12-14T08:40:45;5.60;99.90
17815;DHT22;9031;50.974;11.330;2023-12-14T08:43:12;5.60;99.90
17815;DHT22;9031;50.974;11.330;2023-12-14T08:45:37;5.70;99.90
17815;DHT22;9031;50.974;11.330;2023-12-14T08:48:03;5.80;99.90
17815;DHT22;9031;50.974;11.330;2023-12-14T08:50:29;5.70;99.90
17815;DHT22;9031;50.974;11.330;2023-12-14T08:52:55;5.80;99.90
17815;DHT22;9031;50.974;11.330;2023-12-14T08:55:20;5.80;99.90
17815;DHT22;9031;50.974;11.330;2023-12-14T08:57:47;5.90;99.90
17815;DHT22;9031;50.974;11.330;2023-12-14T09:00:13;5.80;99.90
17815;DHT22;9031;50.974;11.330;2023-12-14T09:02:38;5.70;99.90
17815;DHT22;9031;50.974;11.330;2023-12-14T09:05:04;5.70;99.90
17815;DHT22;9031;50.974;11.330;2023-12-14T09:07:31;5.80;99.90
17815;DHT22;9031;50.974;11.330;2023-12-14T09:09:56;5.90;99.90
17815;DHT22;9031;50.974;11.330;2023-12-14T09:12:22;6.00;99.90
17815;DHT22;9031;50.974;11.330;2023-12-14T09:14:48;6.00;99.90
17815;DHT22;9031;50.974;11.330;2023-12-14T09:17:13;6.00;99.90
17815;DHT22;9031;50.974;11.330;2023-12-14T09:19:39;5.90;99.90
17815;DHT22;9031;50.974;11.330;2023-12-14T09:22:04;5.90;99.90
17815;DHT22;9031;50.974;11.330;2023-12-14T09:24:30;5.90;99.90
17815;DHT22;9031;50.974;11.330;2023-12-14T09:26:55;6.00;99.90
17815;DHT22;9031;50.974;11.330;2023-12-14T09:29:21;6.00;99.90
17815;DHT22;9031;50.974;11.330;2023-12-14T09:31:47;6.00;99.90
17815;DHT22;9031;50.974;11.330;2023-12-14T09:34:12;6.00;99.90
17815;DHT22;9031;50.974;11.330;2023-12-14T09:36:39;6.00;99.90
17815;DHT22;9031;50.974;11.330;2023-12-14T09:39:04;6.00;99.90
17815;DHT22;9031;50.974;11.330;2023-12-14T09:41:30;6.00;99.90
17815;DHT22;9031;50.974;11.330;2023-12-14T09:43:56;6.00;99.90
17815;DHT22;9031;50.974;11.330;2023-12-14T09:46:23;6.00;99.90
17815;DHT22;9031;50.974;11.330;2023-12-14T09:48:50;5.90;99.90
17815;DHT22;9031;50.974;11.330;2023-12-14T09:51:16;5.80;99.90
17815;DHT22;9031;50.974;11.330;2023-12-14T09:53:42;5.70;99.90
17815;DHT22;9031;50.974;11.330;2023-12-14T09:56:07;5.80;99.90
17815;DHT22;9031;50.974;11.330;2023-12-14T09:58:34;5.70;99.90
17815;DHT22;9031;50.974;11.330;2023-12-14T10:01:00;5.70;99.90
17815;DHT22;9031;50.974;11.330;2023-12-14T10:03:30;5.70;99.90
17815;DHT22;9031;50.974;11.330;2023-12-14T10:05:58;5.70;99.90
17815;DHT22;9031;50.974;11.330;2023-12-14T10:08:25;5.60;99.90
17815;DHT22;9031;50.974;11.330;2023-12-14T10:10:52;5.70;99.90
17815;DHT22;9031;50.974;11.330;2023-12-14T10:13:56;5.70;99.90
17815;DHT22;9031;50.974;11.330;2023-12-14T10:16:27;5.70;99.90
17815;DHT22;9031;50.974;11.330;2023-12-14T10:18:53;5.70;99.90
17815;DHT22;9031;50.974;11.330;2023-12-14T10:21:19;5.80;99.90
17815;DHT22;9031;50.974;11.330;2023-12-14T10:23:45;6.00;99.90
17815;DHT22;9031;50.974;11.330;2023-12-14T10:26:11;6.00;99.90
17815;DHT22;9031;50.974;11.330;2023-12-14T10:28:39;5.80;99.90
17815;DHT22;9031;50.974;11.330;2023-12-14T10:31:05;5.80;99.90
17815;DHT22;9031;50.974;11.330;2023-12-14T10:33:31;5.80;99.90
17815;DHT22;9031;50.974;11.330;2023-12-14T10:35:56;5.80;99.90
17815;DHT22;9031;50.974;11.330;2023-12-14T10:38:24;5.80;99.90
17815;DHT22;9031;50.974;11.330;2023-12-14T10:40:51;5.80;99.90
17815;DHT22;9031;50.974;11.330;2023-12-14T10:43:18;5.80;99.90
17815;DHT22;9031;50.974;11.330;2023-12-14T10:45:46;5.90;99.90
17815;DHT22;9031;50.974;11.330;2023-12-14T10:48:13;5.70;99.90
17815;DHT22;9031;50.974;11.330;2023-12-14T10:50:42;6.00;99.90
17815;DHT22;9031;50.974;11.330;2023-12-14T10:53:08;6.30;99.90
17815;DHT22;9031;50.974;11.330;2023-12-14T10:55:41;6.40;99.90
17815;DHT22;9031;50.974;11.330;2023-12-14T10:58:09;6.50;99.90
17815;DHT22;9031;50.974;11.330;2023-12-14T11:00:35;6.50;99.90
17815;DHT22;9031;50.974;11.330;2023-12-14T11:03:04;6.60;99.90
17815;DHT22;9031;50.974;11.330;2023-12-14T11:05:32;6.70;99.90
17815;DHT22;9031;50.974;11.330;2023-12-14T11:08:05;6.80;99.90
17815;DHT22;9031;50.974;11.330;2023-12-14T11:15:48;6.50;99.90
17815;DHT22;9031;50.974;11.330;2023-12-14T11:18:21;6.30;99.90
17815;DHT22;9031;50.974;11.330;2023-12-14T11:21:00;6.20;99.90
17815;DHT22;9031;50.974;11.330;2023-12-14T11:23:27;6.20;99.90
17815;DHT22;9031;50.974;11.330;2023-12-14T11:25:58;6.10;99.90
17815;DHT22;9031;50.974;11.330;2023-12-14T11:28:23;6.10;99.90
17815;DHT22;9031;50.974;11.330;2023-12-14T11:30:49;6.10;99.90
17815;DHT22;9031;50.974;11.330;2023-12-14T11:33:16;6.00;99.90
17815;DHT22;9031;50.974;11.330;2023-12-14T11:35:42;5.90;99.90
17815;DHT22;9031;50.974;11.330;2023-12-14T11:38:08;5.80;99.90
17815;DHT22;9031;50.974;11.330;2023-12-14T11:40:44;5.90;99.90
17815;DHT22;9031;50.974;11.330;2023-12-14T11:43:10;6.00;99.90
17815;DHT22;9031;50.974;11.330;2023-12-14T11:45:39;6.00;99.90
17815;DHT22;9031;50.974;11.330;2023-12-14T11:48:07;6.00;99.90
17815;DHT22;9031;50.974;11.330;2023-12-14T11:50:35;6.00;99.90
17815;DHT22;9031;50.974;11.330;2023-12-14T11:53:02;6.10;99.90
17815;DHT22;9031;50.974;11.330;2023-12-14T11:55:29;6.10;99.90
17815;DHT22;9031;50.974;11.330;2023-12-14T11:57:56;6.00;99.90
17815;DHT22;9031;50.974;11.330;2023-12-14T12:00:26;5.80;99.90
17815;DHT22;9031;50.974;11.330;2023-12-14T12:02:52;5.60;99.90
17815;DHT22;9031;50.974;11.330;2023-12-14T12:05:42;5.50;99.90
17815;DHT22;9031;50.974;11.330;2023-12-14T12:08:09;5.60;99.90
17815;DHT22;9031;50.974;11.330;2023-12-14T12:10:36;5.70;99.90
17815;DHT22;9031;50.974;11.330;2023-12-14T12:13:03;5.80;99.90
17815;DHT22;9031;50.974;11.330;2023-12-14T12:15:35;5.60;99.90
17815;DHT22;9031;50.974;11.330;2023-12-14T12:18:06;5.60;99.90
17815;DHT22;9031;50.974;11.330;2023-12-14T12:20:32;5.70;99.90
17815;DHT22;9031;50.974;11.330;2023-12-14T12:22:58;5.60;99.90
17815;DHT22;9031;50.974;11.330;2023-12-14T12:25:24;5.50;99.90
17815;DHT22;9031;50.974;11.330;2023-12-14T12:27:49;5.50;99.90
17815;DHT22;9031;50.974;11.330;2023-12-14T12:30:15;5.60;99.90
17815;DHT22;9031;50.974;11.330;2023-12-14T12:32:41;5.70;99.90
17815;DHT22;9031;50.974;11.330;2023-12-14T12:35:07;5.60;99.90
17815;DHT22;9031;50.974;11.330;2023-12-14T12:37:34;5.70;99.90
17815;DHT22;9031;50.974;11.330;2023-12-14T12:40:00;5.60;99.90
17815;DHT22;9031;50.974;11.330;2023-12-14T12:42:25;5.60;99.90
17815;DHT22;9031;50.974;11.330;2023-12-14T12:44:51;5.60;99.90
17815;DHT22;9031;50.974;11.330;2023-12-14T12:47:17;5.80;99.90
17815;DHT22;9031;50.974;11.330;2023-12-14T12:49:43;5.50;99.90
17815;DHT22;9031;50.974;11.330;2023-12-14T12:52:09;5.30;99.90
17815;DHT22;9031;50.974;11.330;2023-12-14T12:54:35;5.20;99.90
17815;DHT22;9031;50.974;11.330;2023-12-14T12:57:01;5.30;99.90
17815;DHT22;9031;50.974;11.330;2023-12-14T12:59:26;5.30;99.90
17815;DHT22;9031;50.974;11.330;2023-12-14T13:01:53;5.70;99.90
17815;DHT22;9031;50.974;11.330;2023-12-14T13:04:22;5.90;99.90
17815;DHT22;9031;50.974;11.330;2023-12-14T13:06:48;5.90;99.90
17815;DHT22;9031;50.974;11.330;2023-12-14T13:09:15;5.70;99.90
17815;DHT22;9031;50.974;11.330;2023-12-14T13:11:42;5.70;99.90
17815;DHT22;9031;50.974;11.330;2023-12-14T13:14:08;5.80;99.90
17815;DHT22;9031;50.974;11.330;2023-12-14T13:16:37;5.90;99.90
17815;DHT22;9031;50.974;11.330;2023-12-14T13:19:04;5.90;99.90
17815;DHT22;9031;50.974;11.330;2023-12-14T13:21:31;6.00;99.90
17815;DHT22;9031;50.974;11.330;2023-12-14T13:23:56;6.10;99.90
17815;DHT22;9031;50.974;11.330;2023-12-14T13:26:23;6.20;99.90
17815;DHT22;9031;50.974;11.330;2023-12-14T13:28:50;6.20;99.90
17815;DHT22;9031;50.974;11.330;2023-12-14T13:31:16;6.10;99.90
17815;DHT22;9031;50.974;11.330;2023-12-14T13:33:41;6.10;99.90
17815;DHT22;9031;50.974;11.330;2023-12-14T13:36:07;6.00;99.90
17815;DHT22;9031;50.974;11.330;2023-12-14T13:38:34;5.70;99.90
17815;DHT22;9031;50.974;11.330;2023-12-14T13:41:01;5.60;99.90
17815;DHT22;9031;50.974;11.330;2023-12-14T13:43:28;5.50;99.90
17815;DHT22;9031;50.974;11.330;2023-12-14T13:45:54;5.30;99.90
17815;DHT22;9031;50.974;11.330;2023-12-14T13:48:26;5.40;99.90
17815;DHT22;9031;50.974;11.330;2023-12-14T13:50:55;5.50;99.90
17815;DHT22;9031;50.974;11.330;2023-12-14T13:53:21;5.50;99.90
17815;DHT22;9031;50.974;11.330;2023-12-14T13:55:48;5.50;99.90
17815;DHT22;9031;50.974;11.330;2023-12-14T13:58:17;5.50;99.90
17815;DHT22;9031;50.974;11.330;2023-12-14T14:00:43;5.50;99.90
17815;DHT22;9031;50.974;11.330;2023-12-14T14:03:09;5.40;99.90
17815;DHT22;9031;50.974;11.330;2023-12-14T14:05:35;5.50;99.90
17815;DHT22;9031;50.974;11.330;2023-12-14T14:08:01;5.60;99.90
17815;DHT22;9031;50.974;11.330;2023-12-14T14:10:27;5.60;99.90
17815;DHT22;9031;50.974;11.330;2023-12-14T14:12:52;5.60;99.90
17815;DHT22;9031;50.974;11.330;2023-12-14T14:15:18;5.50;99.90
17815;DHT22;9031;50.974;11.330;2023-12-14T14:17:45;5.40;99.90
17815;DHT22;9031;50.974;11.330;2023-12-14T14:20:13;5.40;99.90
17815;DHT22;9031;50.974;11.330;2023-12-14T14:22:39;5.60;99.90
17815;DHT22;9031;50.974;11.330;2023-12-14T14:25:06;5.50;99.90
17815;DHT22;9031;50.974;11.330;2023-12-14T14:27:35;5.50;99.90
17815;DHT22;9031;50.974;11.330;2023-12-14T14:30:01;5.60;99.90
17815;DHT22;9031;50.974;11.330;2023-12-14T14:32:26;5.50;99.90
17815;DHT22;9031;50.974;11.330;2023-12-14T14:34:52;5.30;99.90
17815;DHT22;9031;50.974;11.330;2023-12-14T14:37:20;5.40;99.90
17815;DHT22;9031;50.974;11.330;2023-12-14T14:39:45;5.50;99.90
17815;DHT22;9031;50.974;11.330;2023-12-14T14:42:11;5.50;99.90
17815;DHT22;9031;50.974;11.330;2023-12-14T14:44:37;5.50;99.90
17815;DHT22;9031;50.974;11.330;2023-12-14T14:47:02;5.50;99.90
17815;DHT22;9031;50.974;11.330;2023-12-14T14:49:28;5.50;99.90
17815;DHT22;9031;50.974;11.330;2023-12-14T14:51:54;5.60;99.90
17815;DHT22;9031;50.974;11.330;2023-12-14T14:54:20;5.40;99.90
17815;DHT22;9031;50.974;11.330;2023-12-14T14:56:45;5.40;99.90
17815;DHT22;9031;50.974;11.330;2023-12-14T14:59:11;5.40;99.90
17815;DHT22;9031;50.974;11.330;2023-12-14T15:01:40;5.40;99.90
17815;DHT22;9031;50.974;11.330;2023-12-14T15:04:05;5.60;99.90
17815;DHT22;9031;50.974;11.330;2023-12-14T15:06:31;5.70;99.90
17815;DHT22;9031;50.974;11.330;2023-12-14T15:08:56;5.90;99.90
17815;DHT22;9031;50.974;11.330;2023-12-14T15:11:22;5.90;99.90
17815;DHT22;9031;50.974;11.330;2023-12-14T15:13:47;5.90;99.90
17815;DHT22;9031;50.974;11.330;2023-12-14T15:16:13;5.80;99.90
17815;DHT22;9031;50.974;11.330;2023-12-14T15:18:38;5.60;99.90
17815;DHT22;9031;50.974;11.330;2023-12-14T15:21:08;5.60;99.90
17815;DHT22;9031;50.974;11.330;2023-12-14T15:23:33;5.50;99.90
17815;DHT22;9031;50.974;11.330;2023-12-14T15:26:00;5.40;99.90
17815;DHT22;9031;50.974;11.330;2023-12-14T15:28:25;5.30;99.90
17815;DHT22;9031;50.974;11.330;2023-12-14T15:30:51;5.40;99.90
17815;DHT22;9031;50.974;11.330;2023-12-14T15:33:16;5.50;99.90
17815;DHT22;9031;50.974;11.330;2023-12-14T15:35:42;5.40;99.90
17815;DHT22;9031;50.974;11.330;2023-12-14T15:38:08;5.30;99.90
17815;DHT22;9031;50.974;11.330;2023-12-14T15:40:33;5.20;99.90
17815;DHT22;9031;50.974;11.330;2023-12-14T15:43:01;5.10;99.90